Time;durP1;ratioP1;P1;durP2;ratioP2;P2;SDS_P1;SDS_P2;PMS_P1;PMS_P2;Temp;Humidity;BMP_temperature;BMP_pressure;BME280_temperature;BME280_humidity;BME280_pressure;Samples;Min_cycle;Max_cycle;Signal;HPM_P1;HPM_P2
2022/06/12 00:00:45;;;;;;;7.35;5.38;;;;;;;17.85;100.00;100574.19;5040522;28;20484;-65
2022/06/12 00:03:14;;;;;;;8.20;5.15;;;;;;;17.81;100.00;100578.00;5032152;28;20036;-65
2022/06/12 00:05:42;;;;;;;7.57;5.10;;;;;;;17.78;100.00;100576.34;5032116;28;20064;-65
2022/06/12 00:08:09;;;;;;;7.72;5.47;;;;;;;18.03;100.00;100582.16;5032186;28;20118;-65
2022/06/12 00:10:37;;;;;;;7.13;5.20;;;;;;;18.08;100.00;100584.59;5032089;28;20026;-65
2022/06/12 00:13:07;;;;;;;8.05;5.13;;;;;;;18.12;100.00;100588.88;5046570;28;20108;-65
2022/06/12 00:15:33;;;;;;;7.05;5.20;;;;;;;17.87;100.00;100586.66;5031636;28;20487;-65
2022/06/12 00:17:59;;;;;;;8.10;5.03;;;;;;;17.66;100.00;100579.69;5050991;28;20032;-65
2022/06/12 00:20:26;;;;;;;8.40;5.15;;;;;;;17.63;100.00;100589.72;5032157;28;20100;-65
2022/06/12 00:22:54;;;;;;;7.72;4.82;;;;;;;17.58;100.00;100587.28;5031851;28;20033;-66
2022/06/12 00:25:21;;;;;;;9.52;5.28;;;;;;;17.56;100.00;100593.72;5031549;28;20052;-66
2022/06/12 00:27:46;;;;;;;7.45;4.75;;;;;;;17.45;100.00;100583.50;5030589;28;20032;-66
2022/06/12 00:30:15;;;;;;;7.57;4.97;;;;;;;17.66;100.00;100590.44;5030164;28;20025;-66
2022/06/12 00:32:42;;;;;;;8.43;4.70;;;;;;;17.50;100.00;100594.88;5030214;28;20032;-66
2022/06/12 00:35:08;;;;;;;7.20;4.80;;;;;;;17.47;100.00;100583.41;5030260;28;20392;-66
2022/06/12 00:37:35;;;;;;;6.25;4.25;;;;;;;17.45;100.00;100590.66;5034947;28;20025;-66
2022/06/12 00:40:01;;;;;;;6.57;4.65;;;;;;;17.41;100.00;100584.59;5045579;28;20028;-66
2022/06/12 00:42:29;;;;;;;8.57;4.63;;;;;;;17.38;100.00;100578.50;5051396;28;20098;-66
2022/06/12 00:44:57;;;;;;;8.43;4.47;;;;;;;17.33;100.00;100581.38;5051299;28;20028;-66
2022/06/12 00:47:22;;;;;;;9.18;4.38;;;;;;;17.34;100.00;100575.09;5050414;28;20051;-66
2022/06/12 00:49:50;;;;;;;8.23;5.07;;;;;;;17.34;100.00;100583.16;5051455;28;20496;-66
2022/06/12 00:52:27;;;;;;;7.68;4.55;;;;;;;17.35;100.00;100578.66;5051274;28;20055;-66
2022/06/12 00:54:57;;;;;;;6.55;4.50;;;;;;;17.31;100.00;100582.44;5051407;28;20021;-66
2022/06/12 00:57:25;;;;;;;6.65;4.20;;;;;;;17.29;100.00;100582.50;5050914;28;20028;-66
2022/06/12 00:59:56;;;;;;;6.28;4.38;;;;;;;17.23;100.00;100580.16;5051234;28;20036;-66
2022/06/12 01:02:27;;;;;;;7.75;4.82;;;;;;;17.16;100.00;100584.09;5034976;28;20029;-66
2022/06/12 01:07:50;;;;;;;6.78;4.35;;;;;;;17.10;100.00;100574.50;5030928;28;20524;-66
2022/06/12 01:10:19;;;;;;;7.35;4.55;;;;;;;17.14;100.00;100580.59;5031344;28;20518;-66
2022/06/12 01:12:52;;;;;;;7.20;4.43;;;;;;;17.12;100.00;100582.47;5031112;28;20022;-66
2022/06/12 01:15:23;;;;;;;7.10;4.63;;;;;;;17.09;100.00;100580.84;5031271;28;20040;-66
2022/06/12 01:17:50;;;;;;;6.63;4.78;;;;;;;17.08;100.00;100586.28;5050108;28;20370;-65
2022/06/12 01:20:21;;;;;;;11.23;5.75;;;;;;;17.07;100.00;100584.53;5031027;28;20095;-65
2022/06/12 01:22:52;;;;;;;9.85;5.07;;;;;;;17.09;100.00;100585.34;5031254;28;20381;-65
2022/06/12 01:25:50;;;;;;;12.10;6.53;;;;;;;17.08;100.00;100589.81;5031052;28;20029;-66
2022/06/12 01:28:39;;;;;;;10.20;5.82;;;;;;;17.12;100.00;100587.84;5028140;28;20029;-66
2022/06/12 01:31:06;;;;;;;9.43;4.65;;;;;;;17.14;100.00;100585.97;5029699;28;20037;-66
2022/06/12 01:33:42;;;;;;;7.93;4.85;;;;;;;17.15;100.00;100586.84;5029336;28;20036;-66
2022/06/12 01:36:29;;;;;;;8.65;6.05;;;;;;;17.12;100.00;100587.84;5029685;28;20030;-66
2022/06/12 01:39:19;;;;;;;8.18;4.57;;;;;;;17.07;100.00;100589.91;5029457;28;20021;-66
2022/06/12 01:42:25;;;;;;;10.18;4.72;;;;;;;17.04;100.00;100587.38;5030880;28;20489;-66
2022/06/12 01:45:26;;;;;;;7.80;4.13;;;;;;;17.01;100.00;100585.72;5030338;28;20041;-66
2022/06/12 01:47:55;;;;;;;7.03;3.92;;;;;;;17.01;100.00;100587.53;5029335;28;20041;-66
2022/06/12 01:50:36;;;;;;;7.78;4.82;;;;;;;16.95;100.00;100585.16;5030978;28;20041;-65
2022/06/12 01:53:20;;;;;;;7.78;4.95;;;;;;;16.89;100.00;100580.06;5044255;28;20054;-65
2022/06/12 01:56:10;;;;;;;8.90;5.60;;;;;;;16.82;100.00;100579.50;5050611;28;20118;-65
2022/06/12 01:58:46;;;;;;;9.43;5.20;;;;;;;16.72;100.00;100577.34;5048706;28;20028;-65
2022/06/12 02:01:28;;;;;;;8.30;5.30;;;;;;;16.66;100.00;100566.88;5049085;28;20388;-65
2022/06/12 02:03:57;;;;;;;11.95;6.15;;;;;;;16.69;100.00;100578.34;5048727;28;20392;-65
2022/06/12 02:06:42;;;;;;;10.02;6.03;;;;;;;16.72;100.00;100583.56;5048816;28;20055;-65
2022/06/12 02:09:37;;;;;;;8.75;5.35;;;;;;;16.69;100.00;100572.09;5048820;28;20043;-65
2022/06/12 02:15:02;;;;;;;8.80;5.70;;;;;;;16.64;100.00;100574.16;5050858;28;20499;-65
2022/06/12 02:17:34;;;;;;;7.35;4.78;;;;;;;16.66;100.00;100577.63;5043265;28;20472;-65
2022/06/12 02:20:03;;;;;;;9.68;4.80;;;;;;;16.65;100.00;100581.28;5032639;28;20615;-65
2022/06/12 02:22:31;;;;;;;9.13;4.88;;;;;;;16.61;100.00;100568.94;5030557;28;20025;-65
2022/06/12 02:25:03;;;;;;;8.20;4.85;;;;;;;16.61;100.00;100574.28;5030281;28;20538;-65
2022/06/12 02:27:40;;;;;;;7.40;4.80;;;;;;;16.57;100.00;100567.34;5029032;28;20056;-66
2022/06/12 02:30:30;;;;;;;7.20;5.05;;;;;;;16.57;100.00;100567.34;5030442;28;20034;-65
2022/06/12 02:33:01;;;;;;;9.00;5.10;;;;;;;16.58;100.00;100574.44;5030303;28;20033;-65
2022/06/12 02:35:47;;;;;;;7.07;4.93;;;;;;;16.56;100.00;100573.66;5030503;28;20040;-65
2022/06/12 02:38:31;;;;;;;8.32;5.32;;;;;;;16.54;100.00;100573.72;5031183;28;20100;-65
2022/06/12 02:41:05;;;;;;;7.32;4.97;;;;;;;16.53;100.00;100577.38;5052148;28;20029;-65
2022/06/12 02:43:34;;;;;;;9.40;5.32;;;;;;;16.52;100.00;100574.75;5053602;28;20057;-65
2022/06/12 02:46:02;;;;;;;9.00;4.50;;;;;;;16.48;100.00;100570.47;5053829;28;20384;-65
2022/06/12 02:48:29;;;;;;;8.80;4.65;;;;;;;16.50;100.00;100571.28;5044217;28;20029;-65
2022/06/12 02:50:57;;;;;;;6.18;4.35;;;;;;;16.51;100.00;100571.19;5033885;28;20109;-65
2022/06/12 02:53:25;;;;;;;8.73;5.38;;;;;;;16.49;100.00;100564.16;5031775;28;20030;-65
2022/06/12 02:55:57;;;;;;;6.13;4.18;;;;;;;16.43;100.00;100565.28;5031770;28;20124;-65
2022/06/12 02:58:46;;;;;;;9.02;4.20;;;;;;;16.40;100.00;100568.13;5031764;28;20041;-65
2022/06/12 03:01:18;;;;;;;9.05;5.18;;;;;;;16.42;100.00;100563.56;5038361;28;20071;-65
2022/06/12 03:04:02;;;;;;;8.13;4.78;;;;;;;16.36;100.00;100561.13;5051444;28;20031;-65
2022/06/12 03:06:29;;;;;;;7.57;5.45;;;;;;;16.31;100.00;100565.84;5051262;28;20053;-65
2022/06/12 03:08:58;;;;;;;7.82;4.78;;;;;;;16.27;100.00;100564.28;5053173;28;20021;-64
2022/06/12 03:11:28;;;;;;;8.07;5.20;;;;;;;16.27;100.00;100563.41;5053209;28;20029;-65
2022/06/12 03:13:56;;;;;;;10.05;5.15;;;;;;;16.21;100.00;100569.91;5053331;28;20086;-65
2022/06/12 03:16:27;;;;;;;9.10;5.50;;;;;;;16.27;100.00;100571.44;5055301;28;20028;-65
2022/06/12 03:19:19;;;;;;;5.70;4.03;;;;;;;16.27;100.00;100568.75;5047391;28;20033;-64
2022/06/12 03:22:10;;;;;;;9.38;5.05;;;;;;;16.17;100.00;100578.19;5032775;28;20129;-64
2022/06/12 03:24:59;;;;;;;6.57;4.60;;;;;;;16.12;100.00;100585.59;5031941;28;20115;-64
2022/06/12 03:27:45;;;;;;;7.00;4.53;;;;;;;16.10;100.00;100582.09;5030342;28;20434;-64
2022/06/12 03:30:28;;;;;;;7.05;4.40;;;;;;;16.07;100.00;100587.59;5029865;28;20030;-64
2022/06/12 03:33:05;;;;;;;7.50;4.95;;;;;;;16.07;100.00;100587.59;5029884;28;20025;-65
2022/06/12 03:35:56;;;;;;;11.20;6.13;;;;;;;16.08;100.00;100584.84;5029634;28;20033;-65
2022/06/12 03:38:29;;;;;;;7.25;4.75;;;;;;;16.08;100.00;100589.38;5029610;28;20026;-65
2022/06/12 03:41:13;;;;;;;7.93;5.00;;;;;;;16.14;100.00;100591.75;5031481;28;20021;-65
2022/06/12 03:43:51;;;;;;;;;;;;;;;16.16;100.00;100597.94;5033183;28;20061;-65
2022/06/12 03:46:43;;;;;;;7.15;4.28;;;;;;;16.13;100.00;100598.06;5032581;28;19913;-65
2022/06/12 03:49:28;;;;;;;8.27;4.50;;;;;;;16.12;100.00;100599.00;5032230;28;20052;-65
2022/06/12 03:52:25;;;;;;;7.15;4.43;;;;;;;16.11;100.00;100605.31;5032649;28;20037;-65
2022/06/12 03:54:56;;;;;;;7.13;4.65;;;;;;;16.08;100.00;100603.63;5032273;28;20038;-65
2022/06/12 04:00:17;;;;;;;6.95;4.57;;;;;;;16.14;100.00;100605.19;5033845;28;20087;-65
2022/06/12 04:02:59;;;;;;;8.30;4.97;;;;;;;16.16;100.00;100614.03;5052145;28;20087;-65
2022/06/12 04:05:35;;;;;;;13.50;6.50;;;;;;;16.17;100.00;100613.09;5052022;28;20033;-65
2022/06/12 04:08:03;;;;;;;10.15;6.90;;;;;;;16.20;100.00;100612.94;5051777;28;20052;-65
2022/06/12 04:10:34;;;;;;;13.95;6.40;;;;;;;16.20;100.00;100611.13;5050384;28;20106;-65
2022/06/12 04:13:00;;;;;;;9.85;6.55;;;;;;;16.28;100.00;100613.44;5032420;28;20389;-65
2022/06/12 04:15:36;;;;;;;9.20;6.40;;;;;;;16.31;100.00;100610.66;5031947;28;20040;-64
2022/06/12 04:18:02;;;;;;;9.43;5.85;;;;;;;16.32;100.00;100618.63;5051185;28;20049;-65
2022/06/12 04:20:54;;;;;;;8.35;5.90;;;;;;;16.38;100.00;100617.44;5031956;28;20033;-64
2022/06/12 04:23:41;;;;;;;12.52;6.90;;;;;;;16.45;100.00;100610.84;5031970;28;20029;-64
2022/06/12 04:26:12;;;;;;;11.13;6.53;;;;;;;16.56;100.00;100613.94;5043635;28;20029;-64
2022/06/12 04:28:42;;;;;;;10.07;6.90;;;;;;;16.59;100.00;100620.03;5052325;28;20039;-64
2022/06/12 04:31:15;;;;;;;11.40;6.53;;;;;;;16.62;100.00;100627.09;5052330;28;20028;-64
2022/06/12 04:33:44;;;;;;;;;;;;;;;16.63;100.00;100628.81;5051881;28;20040;-64
2022/06/12 04:36:10;;;;;;;14.18;7.75;;;;;;;16.65;100.00;100632.31;5051394;28;19932;-64
2022/06/12 04:38:37;;;;;;;14.10;7.47;;;;;;;16.71;100.00;100624.84;5051493;28;20029;-64
2022/06/12 04:41:03;;;;;;;15.02;8.50;;;;;;;16.84;100.00;100625.09;5051376;28;20138;-64
2022/06/12 04:43:29;;;;;;;17.80;7.45;;;;;;;17.25;100.00;100626.63;5051735;28;20055;-64
2022/06/12 04:45:56;;;;;;;11.95;7.10;;;;;;;17.58;100.00;100614.19;5051457;28;20106;-64
2022/06/12 04:48:33;;;;;;;15.60;6.85;;;;;;;17.77;100.00;100619.50;5043028;28;20500;-64
2022/06/12 04:50:58;;;;;;;11.10;6.22;;;;;;;17.80;100.00;100624.72;5031914;28;20029;-64
2022/06/12 04:53:25;;;;;;;10.18;6.18;;;;;;;17.85;100.00;100628.03;5047539;28;20029;-64
2022/06/12 04:55:51;;;;;;;14.75;6.10;;;;;;;17.90;100.00;100632.22;5051299;28;20454;-64
2022/06/12 04:58:16;;;;;;;7.13;4.85;;;;;;;17.88;100.00;100623.34;5051338;28;20021;-64
2022/06/12 05:00:42;;;;;;;8.77;4.85;;;;;;;17.98;100.00;100621.94;5051201;28;20036;-64
2022/06/12 05:03:07;;;;;;;7.97;5.47;;;;;;;18.12;100.00;100632.81;5050231;28;20411;-64
2022/06/12 05:05:33;;;;;;;8.68;5.05;;;;;;;18.17;100.00;100636.13;5051320;28;20031;-64
2022/06/12 05:07:58;;;;;;;8.90;5.35;;;;;;;18.27;100.00;100632.00;5051106;28;20052;-64
2022/06/12 05:10:24;;;;;;;10.77;6.10;;;;;;;18.36;100.00;100636.91;5051023;28;20029;-64
2022/06/12 05:12:49;;;;;;;12.30;5.43;;;;;;;18.44;100.00;100638.31;5051187;28;20400;-65
2022/06/12 05:15:15;;;;;;;9.32;5.68;;;;;;;18.52;100.00;100630.69;5050969;28;20025;-64
2022/06/12 05:17:42;;;;;;;8.82;5.78;;;;;;;18.68;100.00;100631.59;5057500;28;20434;-64
2022/06/12 05:20:15;;;;;;;10.27;6.43;;;;;;;18.82;100.00;100628.97;5031233;28;20095;-64
2022/06/12 05:22:41;;;;;;;9.50;5.50;;;;;;;18.91;100.00;100628.47;5031178;28;20048;-64
2022/06/12 05:25:06;;;;;;;9.85;6.00;;;;;;;19.03;100.00;100627.75;5031007;28;20458;-65
2022/06/12 05:27:32;;;;;;;8.23;5.88;;;;;;;19.14;100.00;100636.09;5031015;28;20022;-65
2022/06/12 05:29:59;;;;;;;13.15;7.03;;;;;;;19.23;100.00;100633.72;5030952;28;20026;-65
2022/06/12 05:32:24;;;;;;;9.25;5.65;;;;;;;19.30;100.00;100632.47;5030781;28;20076;-65
2022/06/12 05:34:51;;;;;;;11.45;6.10;;;;;;;19.35;100.00;100627.66;5030778;28;20025;-65
2022/06/12 05:37:17;;;;;;;9.25;6.30;;;;;;;19.54;100.00;100630.13;5030932;28;20032;-65
2022/06/12 05:39:42;;;;;;;9.15;5.60;;;;;;;19.73;100.00;100629.91;5030914;28;20393;-65
2022/06/12 05:42:08;;;;;;;8.95;5.32;;;;;;;19.82;99.52;100630.22;5031001;28;20112;-65
2022/06/12 05:44:35;;;;;;;7.70;5.40;;;;;;;19.92;97.88;100630.53;5030756;28;20057;-65
2022/06/12 05:47:00;;;;;;;8.52;5.05;;;;;;;20.00;97.29;100629.09;5030701;28;20029;-65
2022/06/12 05:49:27;;;;;;;8.40;5.45;;;;;;;20.15;97.15;100636.28;5030638;28;20036;-65
2022/06/12 05:51:53;;;;;;;6.95;5.28;;;;;;;20.25;95.97;100637.44;5033526;28;20034;-65
2022/06/12 05:54:18;;;;;;;7.72;5.18;;;;;;;20.33;96.29;100643.22;5050651;28;20388;-64
2022/06/12 05:56:44;;;;;;;8.77;5.45;;;;;;;20.39;95.88;100640.16;5049646;28;20380;-64
2022/06/12 05:59:10;;;;;;;11.05;5.57;;;;;;;20.47;95.21;100632.44;5050967;28;20025;-64
2022/06/12 06:01:38;;;;;;;8.40;5.70;;;;;;;20.62;94.93;100628.78;5049023;28;20021;-64
2022/06/12 06:04:03;;;;;;;8.93;6.15;;;;;;;20.73;94.56;100637.06;5050875;28;20029;-64
2022/06/12 06:06:32;;;;;;;9.10;6.15;;;;;;;20.76;95.17;100642.25;5050359;28;20053;-64
2022/06/12 06:08:59;;;;;;;9.00;5.78;;;;;;;20.90;94.70;100638.66;5047388;28;20100;-64
2022/06/12 06:11:25;;;;;;;10.73;6.55;;;;;;;20.91;92.26;100629.56;5050145;28;20037;-64
2022/06/12 06:13:50;;;;;;;11.32;6.88;;;;;;;21.01;90.94;100633.44;5052479;28;20067;-64
2022/06/12 06:16:16;;;;;;;9.20;6.05;;;;;;;21.19;89.45;100634.94;5054944;28;20476;-64
2022/06/12 06:18:42;;;;;;;12.48;5.47;;;;;;;21.37;88.65;100627.41;5051956;28;20029;-64
2022/06/12 06:21:08;;;;;;;10.10;6.05;;;;;;;21.49;86.84;100623.91;5034368;28;20112;-64
2022/06/12 06:23:35;;;;;;;11.82;5.10;;;;;;;21.62;84.88;100627.50;5034637;28;20441;-64
2022/06/12 06:26:01;;;;;;;8.40;5.45;;;;;;;21.73;84.66;100633.91;5040332;28;20033;-64
2022/06/12 06:28:27;;;;;;;10.88;5.80;;;;;;;22.06;82.92;100634.34;5053990;28;20478;-64
2022/06/12 06:30:53;;;;;;;10.02;5.38;;;;;;;22.31;80.79;100638.91;5053890;28;20392;-64
2022/06/12 06:33:18;;;;;;;7.28;5.15;;;;;;;22.46;79.87;100648.66;5051232;28;20028;-64
2022/06/12 06:35:44;;;;;;;11.05;5.72;;;;;;;22.52;79.05;100645.50;5053670;28;20472;-64
2022/06/12 06:38:09;;;;;;;7.30;4.93;;;;;;;22.77;79.33;100648.22;5054179;28;20380;-64
2022/06/12 06:40:35;;;;;;;8.20;4.70;;;;;;;23.00;78.01;100647.41;5054405;28;20028;-64
2022/06/12 06:43:01;;;;;;;7.00;4.32;;;;;;;23.22;76.91;100643.97;5053845;28;20031;-64
2022/06/12 06:48:12;;;;;;;7.55;4.97;;;;;;;23.67;73.71;100639.66;5047040;28;20036;-64
2022/06/12 06:50:38;;;;;;;5.63;4.15;;;;;;;23.78;72.58;100636.97;5033531;28;20025;-64
2022/06/12 06:53:05;;;;;;;7.35;4.10;;;;;;;23.97;71.50;100632.69;5033902;28;20091;-64
2022/06/12 06:55:31;;;;;;;7.28;4.20;;;;;;;24.27;69.05;100640.34;5033597;28;20025;-65
2022/06/12 06:57:59;;;;;;;6.68;4.00;;;;;;;24.56;69.50;100647.06;5033783;28;20037;-65
2022/06/12 07:00:28;;;;;;;7.03;4.00;;;;;;;24.73;65.37;100632.13;5044790;28;20028;-64
2022/06/12 07:02:54;;;;;;;6.22;3.70;;;;;;;24.95;64.89;100638.41;5054084;28;20479;-64
2022/06/12 07:05:20;;;;;;;6.82;3.70;;;;;;;25.05;63.73;100639.38;5053200;28;20043;-64
2022/06/12 07:07:46;;;;;;;6.80;2.90;;;;;;;25.18;64.76;100641.94;5053355;28;20049;-64
2022/06/12 07:10:17;;;;;;;8.15;3.75;;;;;;;25.33;65.69;100638.81;5053557;28;20102;-64
2022/06/12 07:12:43;;;;;;;6.82;3.38;;;;;;;25.55;63.94;100641.50;5053386;28;20040;-64
2022/06/12 07:15:09;;;;;;;4.78;3.45;;;;;;;25.70;63.49;100644.81;5053535;28;20025;-64
2022/06/12 07:17:35;;;;;;;7.15;3.10;;;;;;;25.85;61.36;100635.28;5060518;28;20032;-64
2022/06/12 07:20:01;;;;;;;5.90;3.42;;;;;;;25.69;59.86;100634.88;5033023;28;20032;-64
2022/06/12 07:22:26;;;;;;;6.90;3.60;;;;;;;25.84;61.13;100636.31;5033139;28;20035;-64
2022/06/12 07:24:52;;;;;;;5.85;3.53;;;;;;;26.19;59.88;100633.28;5032105;28;20432;-65
2022/06/12 07:27:17;;;;;;;5.43;3.50;;;;;;;26.56;60.35;100626.28;5033082;28;20112;-65
2022/06/12 07:29:43;;;;;;;4.88;3.30;;;;;;;26.85;57.65;100622.72;5033108;28;20136;-65
2022/06/12 07:32:09;;;;;;;6.07;3.65;;;;;;;27.05;57.50;100624.50;5032904;28;20040;-65
2022/06/12 07:34:35;;;;;;;6.35;3.80;;;;;;;27.26;55.18;100627.16;5031523;28;20025;-65
2022/06/12 07:37:00;;;;;;;6.22;4.00;;;;;;;27.37;56.35;100629.78;5032885;28;20378;-65
2022/06/12 07:39:30;;;;;;;8.63;3.70;;;;;;;27.57;54.35;100628.81;5032895;28;20022;-65
2022/06/12 07:41:56;;;;;;;6.15;3.58;;;;;;;27.88;54.38;100632.25;5032849;28;20033;-65
2022/06/12 07:44:26;;;;;;;7.15;2.78;;;;;;;28.22;54.75;100628.94;5032948;28;20535;-65
2022/06/12 07:46:53;;;;;;;4.88;2.97;;;;;;;28.32;54.03;100629.78;5031605;28;20515;-65
2022/06/12 07:49:20;;;;;;;6.65;3.10;;;;;;;28.63;54.02;100633.19;5031243;28;20450;-65
2022/06/12 07:51:46;;;;;;;5.90;3.15;;;;;;;28.74;51.83;100632.13;5031241;28;20399;-65
2022/06/12 07:54:12;;;;;;;5.57;3.30;;;;;;;28.75;49.88;100621.00;5031413;28;20022;-65
2022/06/12 07:56:39;;;;;;;7.70;3.10;;;;;;;29.16;50.82;100625.16;5033875;28;20139;-65
2022/06/12 07:59:07;;;;;;;7.20;3.00;;;;;;;29.31;49.45;100618.13;5051379;28;20025;-65
2022/06/12 08:01:33;;;;;;;5.50;2.83;;;;;;;29.48;48.78;100620.03;5050759;28;20119;-65
2022/06/12 08:03:59;;;;;;;5.40;2.90;;;;;;;29.42;47.96;100616.03;5051169;28;20500;-65
2022/06/12 08:06:25;;;;;;;8.02;3.53;;;;;;;29.47;48.78;100615.56;5047272;28;20119;-65
2022/06/12 08:08:50;;;;;;;6.32;3.00;;;;;;;29.20;48.19;100608.25;5051066;28;20025;-65
2022/06/12 08:11:17;;;;;;;7.22;2.72;;;;;;;29.23;49.58;100607.06;5050718;28;20029;-65
2022/06/12 08:13:43;;;;;;;5.97;3.20;;;;;;;29.76;49.24;100607.13;5050850;28;20024;-65
2022/06/12 08:16:09;;;;;;;5.82;2.97;;;;;;;30.24;47.96;100602.94;5049254;28;20033;-66
2022/06/12 08:18:37;;;;;;;7.20;3.78;;;;;;;30.46;48.09;100591.38;5050309;28;20025;-66
2022/06/12 08:21:08;;;;;;;5.70;2.88;;;;;;;30.79;47.03;100603.47;5041410;28;20096;-66
2022/06/12 08:23:38;;;;;;;4.72;2.63;;;;;;;31.12;46.09;100598.94;5049963;28;20025;-66
2022/06/12 08:26:15;;;;;;;4.68;2.45;;;;;;;31.40;44.92;100589.44;5034721;28;20108;-66
2022/06/12 08:28:52;;;;;;;5.88;2.40;;;;;;;31.48;45.17;100589.44;5030278;28;20029;-66
2022/06/12 08:31:21;;;;;;;3.92;2.70;;;;;;;31.64;43.09;100594.97;5030424;28;20117;-66
2022/06/12 08:33:49;;;;;;;4.03;2.22;;;;;;;31.90;42.84;100590.19;5046372;28;20520;-66
2022/06/12 08:36:17;;;;;;;3.97;2.50;;;;;;;31.97;43.21;100581.09;5050078;28;20570;-66
2022/06/12 08:38:43;;;;;;;5.13;2.53;;;;;;;31.36;43.68;100580.66;5050312;28;20017;-66
2022/06/12 08:41:14;;;;;;;4.60;2.58;;;;;;;31.13;42.92;100585.03;5049995;28;20036;-66
2022/06/12 08:44:02;;;;;;;4.65;2.35;;;;;;;31.70;45.24;100583.25;5050195;28;20083;-66
2022/06/12 08:46:43;;;;;;;3.38;2.25;;;;;;;31.99;45.47;100589.16;5049899;28;20032;-66
2022/06/12 08:49:27;;;;;;;3.45;2.58;;;;;;;32.28;43.16;100589.47;5035072;28;20408;-66
2022/06/12 08:52:02;;;;;;;7.00;3.35;;;;;;;32.63;43.32;100589.06;5033846;28;20028;-66
2022/06/12 08:54:40;;;;;;;4.70;2.75;;;;;;;32.74;41.12;100585.91;5050247;28;20362;-66
2022/06/12 08:57:34;;;;;;;6.82;2.75;;;;;;;33.09;41.09;100584.59;5049950;28;20029;-66
2022/06/12 09:00:15;;;;;;;4.53;2.13;;;;;;;33.04;42.19;100585.13;5049109;28;20041;-66
2022/06/12 09:02:43;;;;;;;3.95;2.08;;;;;;;32.95;42.78;100577.94;5049624;28;20116;-66
2022/06/12 09:05:12;;;;;;;3.58;2.25;;;;;;;32.99;41.25;100579.31;5049826;28;20551;-66
2022/06/12 09:07:49;;;;;;;4.30;2.30;;;;;;;32.98;41.73;100571.22;5050060;28;20049;-66
2022/06/12 09:10:23;;;;;;;13.05;3.25;;;;;;;32.94;41.93;100575.34;5050846;28;20056;-66
2022/06/12 09:12:52;;;;;;;3.50;2.15;;;;;;;32.68;40.48;100578.38;5051021;28;20122;-66
2022/06/12 09:15:34;;;;;;;5.65;2.28;;;;;;;32.88;41.00;100571.38;5051235;28;20036;-66
2022/06/12 09:18:32;;;;;;;7.40;2.85;;;;;;;33.10;40.41;100570.63;5055099;28;20044;-66
2022/06/12 09:20:57;;;;;;;4.38;2.72;;;;;;;33.06;39.75;100573.94;5029861;28;20060;-66
2022/06/12 09:23:40;;;;;;;3.22;2.28;;;;;;;32.64;39.83;100570.63;5029388;28;20025;-67
2022/06/12 09:26:24;;;;;;;;;;;;;;;32.75;42.53;100571.09;5030423;28;20029;-67
2022/06/12 09:29:13;;;;;;;3.75;2.30;;;;;;;32.99;39.91;100572.91;5027432;28;19928;-67
2022/06/12 09:31:41;;;;;;;3.83;2.13;;;;;;;33.01;40.31;100566.22;5027774;28;20642;-67
2022/06/12 09:34:36;;;;;;;3.00;1.98;;;;;;;32.91;39.70;100573.84;5028137;28;20485;-67
2022/06/12 09:40:26;;;;;;;2.55;1.80;;;;;;;32.88;43.25;100565.88;5030884;28;20067;-67
2022/06/12 09:42:59;;;;;;;6.72;2.17;;;;;;;33.16;41.97;100569.06;5030613;28;20445;-67
2022/06/12 09:45:37;;;;;;;7.65;2.20;;;;;;;33.32;40.85;100564.28;5029540;28;20026;-67
2022/06/12 09:48:21;;;;;;;2.97;1.73;;;;;;;33.76;40.21;100560.88;5031625;28;20026;-67
2022/06/12 09:51:13;;;;;;;4.50;1.90;;;;;;;33.84;39.34;100566.34;5053599;28;20023;-67
2022/06/12 09:54:14;;;;;;;4.05;1.75;;;;;;;33.61;38.27;100558.06;5054623;28;20025;-67
2022/06/12 09:56:45;;;;;;;2.63;1.52;;;;;;;33.75;36.18;100553.66;5051721;28;20523;-67
2022/06/12 09:59:19;;;;;;;3.97;1.65;;;;;;;33.75;37.31;100548.13;5052295;28;20603;-67
2022/06/12 10:01:49;;;;;;;3.25;1.67;;;;;;;33.67;39.30;100548.19;5051739;28;20124;-67
2022/06/12 10:04:20;;;;;;;3.70;1.65;;;;;;;33.70;37.43;100539.53;5053724;28;20036;-67
2022/06/12 10:06:51;;;;;;;4.25;1.50;;;;;;;33.78;36.62;100536.72;5052994;28;20520;-67
2022/06/12 10:09:28;;;;;;;2.28;1.50;;;;;;;33.78;36.98;100536.72;5053462;28;20163;-67
2022/06/12 10:11:59;;;;;;;3.08;1.58;;;;;;;33.99;35.53;100534.13;5054733;28;20518;-67
2022/06/12 10:14:27;;;;;;;4.50;1.75;;;;;;;34.33;38.35;100531.72;5054468;28;20481;-67
2022/06/12 10:17:34;;;;;;;2.28;1.40;;;;;;;34.55;36.50;100523.34;5059483;28;20032;-67
2022/06/12 10:20:06;;;;;;;5.35;1.60;;;;;;;35.03;34.76;100512.69;5053994;28;20099;-67
2022/06/12 10:22:40;;;;;;;2.38;1.58;;;;;;;35.23;33.93;100520.19;5054317;28;20547;-67
2022/06/12 10:25:08;;;;;;;3.42;1.55;;;;;;;35.44;34.35;100519.38;5054624;28;20104;-67
2022/06/12 10:27:44;;;;;;;7.72;1.85;;;;;;;35.44;36.39;100523.00;5053898;28;20370;-67
2022/06/12 10:30:31;;;;;;;2.78;1.45;;;;;;;35.09;36.66;100511.94;5054028;28;20037;-67
2022/06/12 10:33:07;;;;;;;2.40;1.40;;;;;;;34.95;33.56;100504.53;5041103;28;20108;-67
2022/06/12 10:35:33;;;;;;;4.45;1.35;;;;;;;35.31;34.51;100502.59;5033921;28;20391;-67
2022/06/12 10:38:06;;;;;;;3.13;1.42;;;;;;;35.71;35.66;100513.03;5034009;28;20108;-67
2022/06/12 10:40:31;;;;;;;2.72;1.40;;;;;;;35.79;33.03;100508.22;5032695;28;20036;-67
2022/06/12 10:43:05;;;;;;;7.10;1.33;;;;;;;36.16;34.40;100501.50;5048917;28;20710;-67
2022/06/12 10:45:34;;;;;;;3.60;1.40;;;;;;;36.40;33.31;100502.94;5051883;28;20032;-68
2022/06/12 10:48:03;;;;;;;2.05;0.85;;;;;;;36.21;31.36;100495.34;5045063;28;20406;-68
2022/06/12 10:50:47;;;;;;;4.68;1.40;;;;;;;36.00;32.50;100495.44;5031508;28;20036;-68
2022/06/12 10:53:19;;;;;;;2.30;1.38;;;;;;;36.27;34.81;100492.63;5050426;28;20108;-68
2022/06/12 10:56:18;;;;;;;2.42;1.55;;;;;;;36.58;33.46;100487.50;5052329;28;20040;-68
2022/06/12 10:58:53;;;;;;;3.70;1.75;;;;;;;36.00;32.20;100485.19;5052184;28;20488;-68
2022/06/12 11:01:24;;;;;;;2.38;1.25;;;;;;;36.15;31.96;100485.06;5052718;28;20397;-68
2022/06/12 11:04:09;;;;;;;2.90;1.57;;;;;;;36.46;33.66;100482.75;5053516;28;20032;-68
2022/06/12 11:06:38;;;;;;;2.95;1.85;;;;;;;36.82;32.38;100492.53;4626359;28;21967;-68
2022/06/12 11:09:32;;;;;;;3.05;1.33;;;;;;;37.10;31.87;100472.13;5033251;28;20060;-68
2022/06/12 11:12:12;;;;;;;4.53;1.42;;;;;;;35.83;33.35;100473.50;5033550;28;20051;-68
2022/06/12 11:15:17;;;;;;;2.88;1.40;;;;;;;35.35;33.95;100468.81;5033260;28;20503;-68
2022/06/12 11:18:24;;;;;;;2.03;1.40;;;;;;;35.15;33.49;100473.28;5052365;28;20239;-68
2022/06/12 11:20:58;;;;;;;2.33;1.27;;;;;;;36.00;33.54;100464.94;5031604;28;20041;-68
2022/06/12 11:23:49;;;;;;;4.40;1.58;;;;;;;36.05;34.13;100459.66;5030252;28;20532;-67
2022/06/12 11:26:36;;;;;;;2.92;1.55;;;;;;;35.96;32.21;100458.97;5031868;28;20096;-68
2022/06/12 11:29:30;;;;;;;2.58;1.30;;;;;;;35.71;33.89;100453.00;5031895;28;20057;-68
2022/06/12 11:32:07;;;;;;;4.25;1.63;;;;;;;35.83;33.00;100456.91;5030563;28;20053;-68
2022/06/12 11:34:54;;;;;;;2.20;1.30;;;;;;;36.45;31.47;100450.53;5033297;28;20053;-68
2022/06/12 11:37:31;;;;;;;6.57;2.08;;;;;;;36.78;34.01;100448.75;5033099;28;20479;-67
2022/06/12 11:40:40;;;;;;;2.33;1.48;;;;;;;36.63;32.66;100442.50;5032982;28;20084;-67
2022/06/12 11:43:18;;;;;;;5.55;2.17;;;;;;;37.04;32.41;100443.31;5032435;28;20117;-67
2022/06/12 11:45:53;;;;;;;3.20;1.48;;;;;;;37.51;32.95;100442.34;5032878;28;20105;-67
2022/06/12 11:48:29;;;;;;;1.90;1.30;;;;;;;37.98;32.03;100434.63;5031715;28;20061;-67
2022/06/12 11:51:03;;;;;;;5.15;1.30;;;;;;;37.95;33.21;100437.00;5032281;28;20033;-67
2022/06/12 11:53:43;;;;;;;5.90;1.67;;;;;;;37.78;34.30;100436.59;5032258;28;20064;-67
2022/06/12 11:56:19;;;;;;;4.97;1.65;;;;;;;37.83;32.67;100425.69;5032518;28;20424;-67
2022/06/12 11:59:03;;;;;;;2.65;1.30;;;;;;;37.82;31.59;100426.75;5033107;28;20547;-67
2022/06/12 12:01:39;;;;;;;3.92;1.65;;;;;;;37.89;31.73;100424.81;5032187;28;20056;-67
2022/06/12 12:04:26;;;;;;;2.83;1.38;;;;;;;38.49;31.80;100425.53;5032622;28;20424;-67